createdAt,value
2023-10-12T00:00:00.644Z,72.91
2023-10-12T00:02:10.622Z,73.54
2023-10-12T00:04:14.164Z,73.78
2023-10-12T00:06:19.759Z,73.41
2023-10-12T00:08:32.202Z,73.73
2023-10-12T00:10:46.092Z,74.07
2023-10-12T00:12:52.432Z,74.48
2023-10-12T00:14:57.027Z,74.30
2023-10-12T00:17:01.087Z,74.55
2023-10-12T00:19:04.069Z,75.07
2023-10-12T00:21:16.238Z,75.02
2023-10-12T00:23:19.668Z,75.03
2023-10-12T00:25:22.730Z,74.86
2023-10-12T00:27:28.017Z,75.35
2023-10-12T00:29:33.361Z,75.24
2023-10-12T00:31:39.768Z,75.41
2023-10-12T00:33:42.855Z,75.73
2023-10-12T00:35:59.226Z,75.34
2023-10-12T00:38:12.038Z,75.25
2023-10-12T00:40:26.746Z,75.26
2023-10-12T00:42:35.965Z,75.17
2023-10-12T00:44:42.375Z,75.48
2023-10-12T00:47:00.395Z,75.37
2023-10-12T00:49:15.902Z,75.38
2023-10-12T00:51:19.348Z,75.85
2023-10-12T00:53:32.950Z,75.53
2023-10-12T00:55:39.168Z,75.45
2023-10-12T00:57:41.754Z,75.67
2023-10-12T00:59:45.771Z,75.73
2023-10-12T01:01:50.848Z,75.39
2023-10-12T01:03:54.859Z,76.05
2023-10-12T01:06:12.736Z,75.65
2023-10-12T01:08:21.192Z,76.03
2023-10-12T01:10:31.118Z,76.08
2023-10-12T01:12:35.894Z,76.25
2023-10-12T01:14:41.826Z,76.48
2023-10-12T01:16:46.858Z,76.65
2023-10-12T01:18:56.855Z,75.97
2023-10-12T01:20:59.958Z,76.38
2023-10-12T01:23:02.840Z,76.26
2023-10-12T01:25:13.218Z,76.53
2023-10-12T01:27:15.977Z,76.54
2023-10-12T01:29:22.484Z,76.55
2023-10-12T01:31:31.876Z,76.19
2023-10-12T01:33:34.626Z,76.59
2023-10-12T01:35:41.866Z,75.91
2023-10-12T01:37:57.350Z,76.36
2023-10-12T01:40:05.238Z,76.55
2023-10-12T01:42:08.523Z,76.44
2023-10-12T01:44:13.225Z,76.64
2023-10-12T01:46:18.145Z,76.81
2023-10-12T01:48:24.565Z,76.61
2023-10-12T01:50:27.172Z,76.78
2023-10-12T01:52:29.698Z,77.01
2023-10-12T01:54:33.880Z,76.40
2023-10-12T01:56:36.668Z,77.09
2023-10-12T01:58:44.629Z,77.00
2023-10-12T02:00:54.194Z,76.82
2023-10-12T02:03:24.501Z,76.49
2023-10-12T02:05:31.301Z,76.72
2023-10-12T02:07:35.108Z,76.34
2023-10-12T02:09:38.706Z,76.48
2023-10-12T02:11:45.524Z,76.88
2023-10-12T02:13:56.113Z,76.42
2023-10-12T02:16:02.149Z,76.50
2023-10-12T02:18:13.174Z,76.33
2023-10-12T02:20:16.208Z,76.47
2023-10-12T02:22:30.987Z,76.28
2023-10-12T02:24:37.225Z,76.32
2023-10-12T02:26:50.978Z,76.15
2023-10-12T02:28:57.377Z,76.11
2023-10-12T02:31:00.578Z,76.25
2023-10-12T02:33:08.337Z,76.03
2023-10-12T02:35:14.360Z,76.00
2023-10-12T02:37:17.948Z,76.07
2023-10-12T02:39:22.790Z,76.21
2023-10-12T02:41:26.725Z,76.17
2023-10-12T02:43:30.816Z,76.52
2023-10-12T02:45:35.582Z,76.05
2023-10-12T02:47:47.756Z,76.49
2023-10-12T02:50:02.550Z,76.23
2023-10-12T02:52:16.446Z,75.78
2023-10-12T02:54:19.208Z,76.15
2023-10-12T02:56:23.517Z,76.10
2023-10-12T02:58:28.756Z,76.25
2023-10-12T03:00:46.615Z,76.52
2023-10-12T03:02:53.836Z,76.26
2023-10-12T03:04:58.335Z,76.75
2023-10-12T03:07:12.610Z,76.15
2023-10-12T03:09:16.222Z,76.52
2023-10-12T03:11:27.308Z,76.55
2023-10-12T03:13:39.874Z,76.17
2023-10-12T03:15:45.834Z,76.55
2023-10-12T03:17:55.785Z,76.27
2023-10-12T03:20:16.956Z,76.47
2023-10-12T03:22:32.921Z,77.20
2023-10-12T03:24:56.208Z,76.90
2023-10-12T03:27:04.993Z,77.03
2023-10-12T03:29:20.432Z,77.48
2023-10-12T03:31:27.783Z,77.29
2023-10-12T03:33:36.689Z,77.57
2023-10-12T03:35:53.652Z,77.31
2023-10-12T03:38:02.587Z,77.68
2023-10-12T03:40:25.961Z,77.34
2023-10-12T03:42:29.064Z,77.58
2023-10-12T03:44:35.136Z,77.80
2023-10-12T03:46:38.956Z,77.21
2023-10-12T03:49:07.448Z,77.74
2023-10-12T03:51:27.057Z,76.97
2023-10-12T03:53:36.950Z,77.44
2023-10-12T03:55:44.294Z,77.68
2023-10-12T03:58:13.393Z,77.47
2023-10-12T04:00:16.817Z,77.67
2023-10-12T04:02:19.345Z,77.41
2023-10-12T04:04:30.062Z,77.01
2023-10-12T04:06:52.849Z,77.00
2023-10-12T04:09:01.024Z,77.49
2023-10-12T04:11:23.724Z,77.14
2023-10-12T04:13:29.405Z,77.17
2023-10-12T04:15:53.433Z,77.17
2023-10-12T04:18:01.447Z,77.28
2023-10-12T04:20:07.465Z,77.34
2023-10-12T04:22:27.096Z,77.12
2023-10-12T04:24:32.068Z,77.24
2023-10-12T04:26:36.751Z,77.18
2023-10-12T04:28:39.349Z,76.98
2023-10-12T04:30:51.080Z,77.14
2023-10-12T04:33:13.354Z,77.33
2023-10-12T04:35:34.705Z,77.13
2023-10-12T04:37:40.267Z,77.15
2023-10-12T04:39:51.035Z,77.15
2023-10-12T04:42:07.093Z,77.08
2023-10-12T04:44:25.779Z,76.79
2023-10-12T04:46:29.717Z,77.09
2023-10-12T04:48:33.591Z,76.70
2023-10-12T04:50:46.049Z,77.04
2023-10-12T04:53:09.303Z,76.94
2023-10-12T04:55:19.021Z,76.63
2023-10-12T04:57:28.024Z,77.07
2023-10-12T04:59:52.420Z,76.86
2023-10-12T05:02:10.460Z,76.44
2023-10-12T05:04:21.220Z,76.59
2023-10-12T05:06:25.965Z,76.71
2023-10-12T05:08:30.079Z,76.28
2023-10-12T05:10:39.267Z,76.51
2023-10-12T05:12:41.940Z,76.68
2023-10-12T05:14:45.411Z,76.36
2023-10-12T05:16:49.031Z,76.41
2023-10-12T05:18:52.122Z,76.28
2023-10-12T05:20:55.151Z,76.26
2023-10-12T05:23:00.280Z,76.90
2023-10-12T05:25:03.325Z,76.12
2023-10-12T05:27:25.137Z,76.29
2023-10-12T05:29:28.609Z,76.39
2023-10-12T05:31:31.765Z,76.69
2023-10-12T05:33:36.241Z,76.88
2023-10-12T05:35:51.430Z,76.29
2023-10-12T05:37:58.500Z,76.65
2023-10-12T05:40:02.455Z,75.98
2023-10-12T05:42:08.472Z,76.32
2023-10-12T05:44:14.907Z,76.45
2023-10-12T05:46:18.480Z,76.02
2023-10-12T05:48:21.718Z,76.14
2023-10-12T05:50:28.068Z,75.88
2023-10-12T05:52:30.849Z,75.84
2023-10-12T05:54:34.402Z,75.67
2023-10-12T05:56:37.892Z,76.04
2023-10-12T05:58:42.722Z,75.48
2023-10-12T06:00:54.133Z,75.73
2023-10-12T06:02:57.460Z,75.75
2023-10-12T06:05:00.441Z,75.42
2023-10-12T06:07:05.616Z,75.49
2023-10-12T06:09:13.680Z,75.63
2023-10-12T06:11:19.763Z,74.65
2023-10-12T06:13:32.504Z,74.87
2023-10-12T06:15:42.129Z,75.02
2023-10-12T06:17:51.013Z,74.55
2023-10-12T06:19:56.789Z,74.49
2023-10-12T06:22:15.330Z,75.24
2023-10-12T06:24:22.869Z,75.24
2023-10-12T06:26:31.424Z,74.85
2023-10-12T06:28:34.201Z,75.18
2023-10-12T06:30:37.201Z,74.62
2023-10-12T06:32:41.350Z,74.64
2023-10-12T06:34:45.522Z,74.94
2023-10-12T06:36:48.767Z,74.82
2023-10-12T06:38:51.602Z,75.15
2023-10-12T06:41:24.777Z,74.60
2023-10-12T06:43:29.718Z,74.16
2023-10-12T06:45:40.042Z,74.28
2023-10-12T06:47:43.831Z,74.60
2023-10-12T06:49:46.920Z,74.05
2023-10-12T06:52:02.436Z,74.28
2023-10-12T06:54:20.200Z,73.44
2023-10-12T06:56:26.470Z,73.21
2023-10-12T06:58:39.984Z,73.83
2023-10-12T07:01:03.919Z,73.29
2023-10-12T07:03:10.641Z,72.92
2023-10-12T07:05:13.730Z,72.35
2023-10-12T07:07:16.811Z,71.52
2023-10-12T07:09:28.809Z,71.37
2023-10-12T07:11:32.240Z,71.77
2023-10-12T07:13:41.019Z,71.49
2023-10-12T07:15:44.476Z,70.80
2023-10-12T07:17:51.730Z,70.71
2023-10-12T07:19:58.126Z,70.48
2023-10-12T07:22:02.954Z,70.43
2023-10-12T07:24:09.337Z,70.15
2023-10-12T07:26:14.637Z,69.37
2023-10-12T07:28:20.908Z,69.86
2023-10-12T07:30:32.451Z,69.74
2023-10-12T07:32:40.796Z,70.54
2023-10-12T07:34:43.909Z,70.50
2023-10-12T07:36:49.155Z,70.56
2023-10-12T07:39:11.659Z,70.48
2023-10-12T07:41:14.928Z,70.46
2023-10-12T07:43:20.141Z,69.98
2023-10-12T07:45:26.558Z,70.21
2023-10-12T07:47:42.404Z,69.95
2023-10-12T07:49:53.214Z,69.21
2023-10-12T07:52:24.030Z,69.06
2023-10-12T07:54:46.950Z,69.73
2023-10-12T07:56:50.222Z,70.20
2023-10-12T07:59:02.377Z,69.40
2023-10-12T08:01:23.671Z,69.19
2023-10-12T08:03:27.294Z,69.34
2023-10-12T08:05:39.486Z,68.84
2023-10-12T08:08:00.823Z,67.23
2023-10-12T08:10:11.903Z,68.47
2023-10-12T08:12:27.238Z,67.21
2023-10-12T08:14:30.505Z,67.13
2023-10-12T08:16:42.603Z,66.82
2023-10-12T08:18:58.705Z,66.58
2023-10-12T08:21:03.877Z,66.36
2023-10-12T08:23:07.052Z,66.13
2023-10-12T08:25:10.025Z,65.03
2023-10-12T08:27:14.038Z,64.32
2023-10-12T08:29:25.135Z,63.52
2023-10-12T08:31:31.925Z,64.61
2023-10-12T08:33:53.919Z,63.84
2023-10-12T08:36:17.374Z,63.13
2023-10-12T08:38:34.817Z,63.87
2023-10-12T08:40:41.667Z,64.07
2023-10-12T08:42:59.684Z,62.07
2023-10-12T08:45:11.502Z,63.46
2023-10-12T08:47:28.421Z,63.33
2023-10-12T08:49:54.351Z,63.06
2023-10-12T08:52:17.840Z,64.24
2023-10-12T08:54:23.159Z,65.52
2023-10-12T08:56:28.212Z,65.01
2023-10-12T08:58:50.064Z,63.66
2023-10-12T09:01:00.696Z,63.34
2023-10-12T09:03:07.927Z,62.33
2023-10-12T09:05:14.024Z,62.12
2023-10-12T09:07:37.955Z,61.53
2023-10-12T09:10:12.955Z,61.69
2023-10-12T09:12:22.776Z,61.10
2023-10-12T09:14:28.062Z,61.36
2023-10-12T09:16:31.213Z,61.67
2023-10-12T09:18:44.524Z,61.44
2023-10-12T09:21:05.795Z,62.45
2023-10-12T09:23:18.023Z,61.51
2023-10-12T09:25:46.069Z,61.93
2023-10-12T09:27:51.031Z,61.46
2023-10-12T09:29:59.831Z,62.39
2023-10-12T09:32:14.499Z,62.65
2023-10-12T09:34:32.502Z,63.66
2023-10-12T09:36:39.118Z,62.80
2023-10-12T09:38:44.911Z,63.18
2023-10-12T09:40:54.382Z,62.88
2023-10-12T09:43:08.876Z,62.15
2023-10-12T09:45:29.531Z,63.31
2023-10-12T09:47:47.041Z,62.67
2023-10-12T09:49:56.219Z,62.47
2023-10-12T09:52:05.498Z,63.52
2023-10-12T09:54:17.600Z,63.25
2023-10-12T09:56:26.056Z,63.59
2023-10-12T09:58:36.392Z,62.44
2023-10-12T10:01:00.476Z,62.30
2023-10-12T10:03:05.286Z,62.76
2023-10-12T10:05:28.854Z,62.67
2023-10-12T10:07:37.978Z,62.93
2023-10-12T10:09:43.160Z,62.42
2023-10-12T10:11:48.125Z,61.73
2023-10-12T10:13:55.078Z,61.26
2023-10-12T10:15:58.174Z,61.83
2023-10-12T10:18:03.384Z,61.45
2023-10-12T10:20:26.692Z,62.02
2023-10-12T10:22:33.792Z,62.09
2023-10-12T10:24:53.472Z,60.84
2023-10-12T10:26:59.830Z,60.51
2023-10-12T10:29:19.046Z,59.82
2023-10-12T10:31:35.803Z,60.44
2023-10-12T10:33:39.395Z,60.43
2023-10-12T10:36:27.252Z,60.43
2023-10-12T10:38:34.011Z,60.04
2023-10-12T10:40:46.618Z,60.37
2023-10-12T10:43:07.632Z,59.32
2023-10-12T10:45:14.492Z,59.69
2023-10-12T10:47:17.947Z,60.09
2023-10-12T10:51:30.648Z,60.59
2023-10-12T10:53:38.953Z,59.92
2023-10-12T10:55:42.345Z,60.85
2023-10-12T10:57:45.080Z,59.40
2023-10-12T10:59:48.629Z,59.90
2023-10-12T11:01:52.091Z,60.52
2023-10-12T11:03:59.119Z,59.43
2023-10-12T11:06:02.583Z,59.51
2023-10-12T11:08:21.610Z,57.99
2023-10-12T11:10:33.223Z,59.47
2023-10-12T11:12:39.755Z,58.91
2023-10-12T11:15:00.284Z,58.83
2023-10-12T11:17:07.299Z,58.50
2023-10-12T11:19:10.807Z,59.31
2023-10-12T11:23:19.601Z,57.40
2023-10-12T11:25:22.592Z,59.09
2023-10-12T11:27:36.146Z,58.60
2023-10-12T11:29:55.664Z,58.39
2023-10-12T11:32:18.089Z,57.31
2023-10-12T11:34:25.800Z,56.83
2023-10-12T11:36:28.587Z,57.46
2023-10-12T11:38:31.364Z,56.86
2023-10-12T11:40:34.175Z,56.87
2023-10-12T11:42:54.509Z,57.67
2023-10-12T11:44:57.712Z,57.79
2023-10-12T11:47:02.720Z,57.79
2023-10-12T11:49:10.248Z,58.77
2023-10-12T11:51:13.605Z,57.70
2023-10-12T11:53:17.161Z,58.76
2023-10-12T11:55:21.717Z,58.77
2023-10-12T11:57:25.029Z,58.04
2023-10-12T11:59:28.616Z,58.92
2023-10-12T12:01:31.587Z,58.63
2023-10-12T12:03:41.642Z,58.95
2023-10-12T12:05:45.594Z,59.54
2023-10-12T12:07:53.206Z,58.73
2023-10-12T12:10:02.937Z,59.91
2023-10-12T12:12:14.212Z,60.07
2023-10-12T12:14:17.138Z,60.37
2023-10-12T12:16:24.330Z,59.90
2023-10-12T12:18:29.636Z,60.04
2023-10-12T12:20:40.400Z,60.52
2023-10-12T12:22:46.217Z,60.59
2023-10-12T12:24:49.119Z,60.97
2023-10-12T12:26:56.534Z,61.08
2023-10-12T12:29:05.910Z,61.74
2023-10-12T12:31:12.788Z,61.37
2023-10-12T12:33:18.111Z,61.26
2023-10-12T12:35:23.186Z,62.12
2023-10-12T12:37:27.291Z,61.99
2023-10-12T12:39:34.959Z,62.06
2023-10-12T12:41:38.308Z,62.75
2023-10-12T12:43:43.259Z,63.35
2023-10-12T12:45:45.867Z,63.93
2023-10-12T12:47:48.777Z,64.32
2023-10-12T12:49:52.119Z,65.19
2023-10-12T12:51:55.201Z,65.22
2023-10-12T12:53:58.262Z,65.32
2023-10-12T12:56:04.234Z,65.84
2023-10-12T12:58:09.385Z,65.77
2023-10-12T13:00:21.306Z,65.96
2023-10-12T13:02:24.107Z,65.97
2023-10-12T13:04:29.429Z,66.02
2023-10-12T13:06:36.482Z,66.27
2023-10-12T13:08:40.161Z,66.58
2023-10-12T13:10:43.036Z,66.64
2023-10-12T13:12:47.940Z,66.11
2023-10-12T13:14:51.824Z,65.14
2023-10-12T13:16:56.477Z,63.79
2023-10-12T13:19:01.558Z,64.52
2023-10-12T13:21:08.266Z,64.61
2023-10-12T13:23:14.761Z,64.82
2023-10-12T13:25:21.275Z,64.84
2023-10-12T13:27:33.796Z,64.58
2023-10-12T13:29:39.693Z,64.76
2023-10-12T13:31:42.674Z,64.96
2023-10-12T13:33:46.031Z,65.64
2023-10-12T13:35:50.868Z,66.04
2023-10-12T13:37:54.876Z,66.49
2023-10-12T13:39:59.763Z,66.59
2023-10-12T13:42:02.916Z,66.94
2023-10-12T13:44:07.459Z,67.59
2023-10-12T13:46:11.173Z,67.44
2023-10-12T13:48:14.141Z,67.83
2023-10-12T13:50:16.928Z,67.69
2023-10-12T13:52:20.033Z,68.28
2023-10-12T13:54:24.915Z,68.89
2023-10-12T13:56:31.689Z,69.11
2023-10-12T13:58:38.688Z,69.89
2023-10-12T14:00:43.794Z,70.04
2023-10-12T14:02:49.621Z,70.23
2023-10-12T14:04:52.473Z,70.89
2023-10-12T14:07:03.099Z,70.37
2023-10-12T14:09:07.067Z,70.64
2023-10-12T14:11:19.838Z,70.86
2023-10-12T14:13:22.763Z,71.40
2023-10-12T14:15:28.596Z,71.33
2023-10-12T14:17:31.532Z,71.70
2023-10-12T14:19:37.650Z,72.06
2023-10-12T14:21:40.757Z,72.61
2023-10-12T14:23:50.720Z,73.04
2023-10-12T14:25:55.930Z,72.98
2023-10-12T14:28:01.957Z,73.20
2023-10-12T14:30:19.714Z,73.34
2023-10-12T14:32:25.568Z,73.59
2023-10-12T14:34:28.358Z,73.92
2023-10-12T14:36:31.472Z,73.93
2023-10-12T14:38:36.020Z,73.87
2023-10-12T14:40:42.343Z,74.31
2023-10-12T14:42:45.542Z,74.23
2023-10-12T14:44:53.477Z,74.52
2023-10-12T14:46:56.312Z,74.57
2023-10-12T14:49:00.119Z,74.93
2023-10-12T14:51:14.698Z,74.79
2023-10-12T14:53:22.579Z,75.47
2023-10-12T14:55:26.351Z,75.68
2023-10-12T14:57:30.575Z,75.52
2023-10-12T14:59:35.740Z,75.30
2023-10-12T15:01:40.633Z,74.05
2023-10-12T15:03:47.430Z,74.32
2023-10-12T15:05:55.769Z,73.88
2023-10-12T15:07:59.055Z,73.89
2023-10-12T15:10:04.095Z,73.69
2023-10-12T15:12:07.674Z,73.38
2023-10-12T15:14:10.567Z,72.86
2023-10-12T15:16:14.504Z,72.14
2023-10-12T15:18:19.982Z,72.48
2023-10-12T15:20:28.296Z,71.74
2023-10-12T15:22:32.244Z,71.77
2023-10-12T15:24:42.014Z,71.26
2023-10-12T15:26:45.107Z,71.06
2023-10-12T15:28:51.078Z,71.10
2023-10-12T15:30:54.249Z,70.59
2023-10-12T15:32:57.550Z,70.72
2023-10-12T15:35:00.371Z,70.94
2023-10-12T15:37:03.602Z,71.24
2023-10-12T15:39:16.667Z,71.09
2023-10-12T15:41:21.113Z,71.07
2023-10-12T15:43:25.567Z,71.17
2023-10-12T15:45:30.530Z,71.21
2023-10-12T15:47:34.248Z,71.46
2023-10-12T15:49:37.461Z,71.58
2023-10-12T15:51:41.392Z,71.33
2023-10-12T15:53:45.295Z,71.49
2023-10-12T15:55:49.849Z,72.04
2023-10-12T15:57:54.834Z,71.96
2023-10-12T15:59:58.007Z,72.29
2023-10-12T16:02:02.677Z,72.27
2023-10-12T16:04:10.201Z,72.89
2023-10-12T16:06:15.108Z,72.86
2023-10-12T16:08:19.554Z,72.96
2023-10-12T16:10:22.876Z,72.74
2023-10-12T16:12:28.871Z,73.20
2023-10-12T16:14:33.716Z,73.45
2023-10-12T16:16:37.870Z,73.67
2023-10-12T16:18:42.640Z,73.53
2023-10-12T16:20:46.307Z,73.53
2023-10-12T16:22:49.967Z,73.67
2023-10-12T16:24:54.038Z,73.64
2023-10-12T16:26:56.832Z,74.00
2023-10-12T16:29:03.018Z,73.97
2023-10-12T16:31:09.896Z,74.05
2023-10-12T16:33:13.520Z,74.68
2023-10-12T16:35:22.292Z,75.03
2023-10-12T16:37:25.732Z,74.98
2023-10-12T16:39:30.312Z,74.97
2023-10-12T16:41:35.141Z,75.32
2023-10-12T16:43:39.378Z,75.20
2023-10-12T16:45:42.709Z,75.50
2023-10-12T16:47:46.773Z,75.33
2023-10-12T16:49:49.822Z,75.94
2023-10-12T16:51:52.943Z,76.18
2023-10-12T16:53:55.504Z,75.99
2023-10-12T16:56:00.484Z,75.90
2023-10-12T16:58:03.972Z,75.59
2023-10-12T17:00:10.108Z,75.42
2023-10-12T17:02:12.911Z,76.18
2023-10-12T17:04:42.245Z,75.94
2023-10-12T17:06:45.336Z,76.45
2023-10-12T17:08:49.301Z,76.21
2023-10-12T17:10:52.222Z,76.41
2023-10-12T17:12:55.148Z,76.26
2023-10-12T17:14:59.845Z,75.81
2023-10-12T17:17:05.771Z,75.99
2023-10-12T17:19:09.449Z,76.00
2023-10-12T17:21:14.553Z,75.38
2023-10-12T17:23:17.604Z,75.90
2023-10-12T17:25:20.491Z,76.00
2023-10-12T17:27:23.182Z,75.88
2023-10-12T17:29:28.335Z,76.28
2023-10-12T17:31:31.281Z,76.08
2023-10-12T17:33:35.370Z,75.93
2023-10-12T17:35:39.758Z,76.47
2023-10-12T17:37:44.165Z,76.30
2023-10-12T17:39:47.163Z,76.81
2023-10-12T17:41:51.194Z,76.21
2023-10-12T17:43:54.978Z,76.21
2023-10-12T17:45:58.783Z,76.35
2023-10-12T17:48:02.470Z,76.10
2023-10-12T17:50:14.723Z,76.63
2023-10-12T17:52:20.800Z,76.96
2023-10-12T17:54:24.638Z,77.32
2023-10-12T17:56:27.844Z,77.34
2023-10-12T17:58:31.024Z,77.10
2023-10-12T18:00:35.096Z,76.93
2023-10-12T18:02:43.616Z,77.53
2023-10-12T18:04:48.184Z,77.52
2023-10-12T18:06:51.937Z,77.81
2023-10-12T18:08:55.502Z,77.77
2023-10-12T18:11:07.661Z,77.84
2023-10-12T18:13:13.943Z,77.68
2023-10-12T18:15:16.739Z,77.80
2023-10-12T18:17:19.422Z,77.69
2023-10-12T18:19:22.808Z,77.50
2023-10-12T18:21:26.022Z,77.74
2023-10-12T18:23:32.782Z,77.81
2023-10-12T18:25:39.570Z,77.34
2023-10-12T18:27:44.872Z,77.84
2023-10-12T18:29:48.304Z,77.38
2023-10-12T18:31:51.558Z,77.35
2023-10-12T18:33:54.918Z,77.54
2023-10-12T18:35:58.044Z,77.50
2023-10-12T18:38:00.953Z,78.68
2023-10-12T18:40:06.360Z,77.99
2023-10-12T18:42:11.042Z,78.10
2023-10-12T18:44:15.448Z,78.44
2023-10-12T18:46:22.019Z,78.40
2023-10-12T18:48:30.789Z,79.51
2023-10-12T18:50:33.507Z,80.03
2023-10-12T18:52:39.171Z,79.63
2023-10-12T18:54:44.080Z,79.63
2023-10-12T18:56:46.796Z,79.22
2023-10-12T18:58:51.846Z,79.22
2023-10-12T19:01:00.368Z,79.28
2023-10-12T19:03:04.677Z,79.78
2023-10-12T19:05:08.222Z,80.15
2023-10-12T19:07:12.174Z,80.40
2023-10-12T19:09:15.093Z,79.64
2023-10-12T19:11:21.642Z,80.29
2023-10-12T19:13:25.036Z,80.30
2023-10-12T19:15:28.296Z,80.09
2023-10-12T19:17:31.281Z,80.56
2023-10-12T19:19:34.249Z,80.07
2023-10-12T19:21:39.325Z,80.31
2023-10-12T19:23:42.505Z,80.35
2023-10-12T19:25:45.544Z,80.31
2023-10-12T19:27:48.763Z,80.44
2023-10-12T19:29:51.949Z,80.73
2023-10-12T19:31:56.821Z,80.28
2023-10-12T19:33:59.577Z,80.18
2023-10-12T19:36:06.110Z,80.28
2023-10-12T19:38:09.758Z,80.17
2023-10-12T19:40:17.786Z,80.43
2023-10-12T19:42:20.804Z,80.25
2023-10-12T19:44:24.791Z,80.07
2023-10-12T19:46:29.490Z,79.57
2023-10-12T19:48:32.908Z,79.38
2023-10-12T19:50:38.199Z,79.26
2023-10-12T19:52:41.273Z,79.27
2023-10-12T19:54:44.637Z,79.17
2023-10-12T19:56:47.932Z,79.05
2023-10-12T19:58:53.993Z,79.16
2023-10-12T20:00:58.190Z,79.51
2023-10-12T20:03:16.481Z,79.38
2023-10-12T20:05:20.331Z,79.43
2023-10-12T20:07:23.501Z,79.74
2023-10-12T20:09:30.822Z,79.29
2023-10-12T20:11:34.819Z,79.65
2023-10-12T20:13:39.337Z,79.73
2023-10-12T20:15:43.681Z,80.25
2023-10-12T20:17:48.919Z,80.46
2023-10-12T20:19:55.186Z,80.46
2023-10-12T20:21:58.122Z,80.89
2023-10-12T20:24:01.550Z,80.47
2023-10-12T20:26:05.847Z,80.73
2023-10-12T20:28:08.742Z,81.10
2023-10-12T20:30:12.899Z,80.94
2023-10-12T20:32:15.568Z,80.67
2023-10-12T20:34:21.424Z,80.83
2023-10-12T20:36:24.622Z,80.63
2023-10-12T20:38:29.371Z,81.35
2023-10-12T20:40:40.908Z,82.15
2023-10-12T20:42:44.686Z,81.77
2023-10-12T20:44:47.320Z,81.01
2023-10-12T20:46:50.899Z,81.59
2023-10-12T20:48:56.793Z,80.66
2023-10-12T20:51:06.594Z,80.89
2023-10-12T20:53:11.289Z,80.80
2023-10-12T20:55:14.912Z,80.87
2023-10-12T20:57:18.068Z,80.99
2023-10-12T20:59:28.027Z,80.63
2023-10-12T21:01:32.477Z,80.49
2023-10-12T21:03:39.045Z,80.88
2023-10-12T21:05:41.883Z,80.60
2023-10-12T21:07:45.554Z,80.88
2023-10-12T21:10:02.574Z,80.67
2023-10-12T21:12:15.999Z,81.07
2023-10-12T21:14:22.961Z,81.14
2023-10-12T21:16:28.781Z,80.75
2023-10-12T21:18:39.137Z,81.42
2023-10-12T21:20:54.063Z,80.78
2023-10-12T21:22:57.369Z,81.32
2023-10-12T21:25:00.212Z,81.20
2023-10-12T21:27:08.207Z,81.74
2023-10-12T21:29:13.440Z,81.99
2023-10-12T21:31:18.835Z,82.24
2023-10-12T21:33:29.603Z,82.14
2023-10-12T21:35:33.125Z,81.65
2023-10-12T21:37:37.362Z,81.34
2023-10-12T21:39:43.495Z,81.39
2023-10-12T21:41:46.199Z,81.72
2023-10-12T21:43:48.739Z,81.42
2023-10-12T21:45:53.411Z,81.19
2023-10-12T21:47:56.353Z,80.85
2023-10-12T21:49:59.406Z,81.33
2023-10-12T21:52:02.610Z,81.63
2023-10-12T21:54:07.357Z,82.11
2023-10-12T21:56:10.886Z,81.79
2023-10-12T21:58:13.456Z,81.62
2023-10-12T22:00:33.343Z,81.91
2023-10-12T22:02:36.207Z,81.66
2023-10-12T22:04:39.839Z,81.53
2023-10-12T22:06:42.792Z,81.59
2023-10-12T22:08:46.045Z,81.45
2023-10-12T22:10:53.172Z,81.79
2023-10-12T22:12:58.604Z,81.43
2023-10-12T22:15:02.800Z,81.63
2023-10-12T22:17:09.225Z,81.65
2023-10-12T22:19:12.077Z,81.60
2023-10-12T22:21:16.330Z,81.91
2023-10-12T22:23:19.859Z,81.97
2023-10-12T22:25:22.665Z,82.27
2023-10-12T22:27:33.192Z,82.29
2023-10-12T22:29:37.280Z,82.23
2023-10-12T22:31:40.480Z,82.74
2023-10-12T22:33:43.537Z,82.14
2023-10-12T22:35:59.989Z,82.66
2023-10-12T22:38:04.914Z,82.77
2023-10-12T22:40:18.771Z,83.59
2023-10-12T22:42:21.654Z,82.89
2023-10-12T22:44:24.557Z,83.12
2023-10-12T22:46:27.102Z,82.77
2023-10-12T22:48:30.248Z,82.43
2023-10-12T22:50:33.423Z,82.53
2023-10-12T22:52:36.065Z,82.49
2023-10-12T22:54:39.761Z,82.20
2023-10-12T22:56:43.825Z,82.78
2023-10-12T22:58:46.340Z,82.89
2023-10-12T23:00:51.854Z,83.20
2023-10-12T23:02:56.021Z,83.56
2023-10-12T23:04:59.399Z,84.06
2023-10-12T23:07:02.821Z,83.77
2023-10-12T23:09:08.681Z,84.07
2023-10-12T23:11:24.535Z,84.21
2023-10-12T23:13:31.168Z,83.78
2023-10-12T23:15:34.318Z,83.82
2023-10-12T23:18:03.596Z,83.66
2023-10-12T23:20:17.772Z,83.86
2023-10-12T23:22:23.868Z,83.57
2023-10-12T23:24:26.571Z,83.07
2023-10-12T23:26:32.265Z,82.88
2023-10-12T23:28:35.404Z,83.19
2023-10-12T23:30:40.513Z,83.09
2023-10-12T23:32:43.526Z,83.06
2023-10-12T23:34:46.326Z,83.49
2023-10-12T23:37:00.104Z,83.52
2023-10-12T23:39:03.008Z,83.13
2023-10-12T23:41:16.317Z,83.80
2023-10-12T23:43:19.751Z,83.78
2023-10-12T23:45:38.096Z,83.26
2023-10-12T23:47:41.309Z,83.50
2023-10-12T23:49:47.748Z,84.12
2023-10-12T23:51:50.531Z,84.05
2023-10-12T23:53:56.535Z,84.04
2023-10-12T23:55:59.379Z,84.09
2023-10-12T23:58:13.991Z,84.07
